Audubon, Minnesota
Current Conditions -  °F | °C
As of 12:35 AM on Saturday 25 Oct 2014 (Local Time) from KDTL Reporting Station
Clear Clear  
Wind Chill: 11°   Ceiling: Unl
Heat Index: 11°   Visibility: 10mi
Dew Point:   Wind: 13mph
Humidity: 47%   Direction: 300°WNW
Pressure: 29.94"   Gusts: 17mph
Location:  46.86°N, 95.98°W
Report Text: KDTL 250535Z AUTO 30011G15KT 10SM CLR 11/00 A2994 RMK AO2
Loading
Personal Weather Stations






























Interactive Weather Map
Tropical Storm Tracking
New forecast layout! Learn more

10-Day Weather Forecast

Advertisements
Track Severe Weather on mobile